Saturday, August 18, 2018, 8:23 PM EDT
Back to Local

KMSS, Massena International -richards Fld

Location: Massena, NY, United States Lat: 44.933
Local Time: 8:23 PM EDT ( 0:23 GMT) Lon: -74.85
Time Zone: US/Eastern Elev: 213 ft

Show me the last for .
Show Coded

Time T Td Feel RH Dir Speed Gust Alt SLP Vis Weather Sky Remarks
2018-08-18 19:53 68 65 - 89 - Calm - 29.95 29.95 10 CLR 6-hr Min Temp (8pm): 68.0°F
6-hr Max Temp (8pm): 75.9°F
2018-08-18 18:53 74 63 77 68 120° 3 - 29.95 29.94 10 FEW050 None
2018-08-18 17:53 75 62 78 64 100° 3 - 29.94 29.93 10 CLR None
2018-08-18 16:53 76 62 78 62 90° 5 - 29.93 29.93 10 CLR None
2018-08-18 15:53 76 61 78 59 - - - 29.93 29.93 10 SCT038 None
2018-08-18 14:53 75 61 78 61 30° 10 - 29.93 29.93 10 SCT037 None
2018-08-18 13:53 74 62 77 66 360° 9 - 29.94 29.93 10 BKN031 6-hr Min Temp (2pm): 64.9°F
6-hr Max Temp (2pm): 75.0°F
2018-08-18 12:53 73 61 77 65 10° 9 - 29.94 29.94 10 SCT028 None
2018-08-18 12:03 72 62 76 71 350° 8 - 29.95 - 10 BKN025 None
2018-08-18 11:53 72 62 76 71 20° 10 - 29.95 29.94 10 SCT025 None
2018-08-18 10:53 71 61 76 70 360° 8 - 29.94 29.94 10 CLR None
2018-08-18 09:53 68 60 - 75 10° 8 - 29.94 29.94 10 CLR None
2018-08-18 08:53 66 60 - 81 360° 6 - 29.95 29.94 10 OVC035 None
2018-08-18 08:33 66 60 - 81 340° 5 - 29.95 - 10 OVC031 None
2018-08-18 07:53 65 60 - 84 350° 6 - 29.95 29.94 10 OVC018 6-hr Min Temp (8am): 64.0°F
6-hr Max Temp (8am): 66.0°F
2018-08-18 06:53 64 60 - 86 350° 7 - 29.93 29.93 10 OVC020 None
2018-08-18 05:53 64 61 - 89 350° 6 - 29.91 29.91 10 OVC021 None
2018-08-18 04:53 65 62 - 90 330° 6 - 29.90 29.90 10 OVC018 None
2018-08-18 03:53 66 63 - 89 350° 6 - 29.89 29.88 10 SCT012 OVC018 None
2018-08-18 03:35 66 63 - 89 360° 5 - 29.88 - 10 BKN012 OVC020 None
2018-08-18 02:53 65 63 - 93 30° 6 - 29.88 29.88 10 OVC018 None
2018-08-18 02:21 66 63 - 89 20° 8 - 29.89 - 10 OVC016 None
2018-08-18 01:53 66 63 - 89 30° 8 - 29.89 29.88 10 OVC012 6-hr Precip Total (2am): 0.00"
6-hr Min Temp (2am): 64.9°F
6-hr Max Temp (2am): 75.0°F
2018-08-18 00:53 66 65 - 96 330° 3 - 29.88 29.88 10 OVC011 24-hr Min Temp (1am): 61.0°F
24-hr Max Temp (1am): 79.0°F
2018-08-18 00:35 66 65 - 96 - Calm - 29.88 - 6 BR OVC009 None
2018-08-17 23:53 67 64 - 90 360° 7 - 29.87 29.87 10 OVC013 None
2018-08-17 23:14 68 64 - 87 340° 9 - 29.88 - 10 OVC015 None
2018-08-17 22:53 69 65 - 86 340° 8 - 29.87 29.87 10 OVC013 6-hr Precip Total (11pm): 0.00"
2018-08-17 21:53 70 66 - 87 310° 10 - 29.86 29.85 10 OVC013 None
2018-08-17 21:22 71 67 76 86 310° 12 - 29.86 - 10 BKN014 OVC024 None
2018-08-17 20:53 72 67 76 84 280° 9 - 29.85 29.85 10 OVC021 1-hr Precip Total: Trace

Support USWX by starting your Amazon purchase here.